sensor_id;sensor_type;location;lat;lon;timestamp;P1;durP1;ratioP1;P2;durP2;ratioP2
23670;SDS011;12012;51.998;7.614;2022-08-14T00:02:00;7.22;;;6.63;;
23670;SDS011;12012;51.998;7.614;2022-08-14T00:04:28;7.32;;;6.63;;
23670;SDS011;12012;51.998;7.614;2022-08-14T00:06:54;7.40;;;6.72;;
23670;SDS011;12012;51.998;7.614;2022-08-14T00:09:20;7.78;;;6.97;;
23670;SDS011;12012;51.998;7.614;2022-08-14T00:11:45;7.57;;;6.88;;
23670;SDS011;12012;51.998;7.614;2022-08-14T00:14:11;7.18;;;6.47;;
23670;SDS011;12012;51.998;7.614;2022-08-14T00:16:36;8.18;;;7.35;;
23670;SDS011;12012;51.998;7.614;2022-08-14T00:19:02;9.20;;;7.60;;
23670;SDS011;12012;51.998;7.614;2022-08-14T00:21:28;6.80;;;6.20;;
23670;SDS011;12012;51.998;7.614;2022-08-14T00:23:54;8.75;;;6.95;;
23670;SDS011;12012;51.998;7.614;2022-08-14T00:26:21;8.68;;;7.78;;
23670;SDS011;12012;51.998;7.614;2022-08-14T00:28:47;7.93;;;7.10;;
23670;SDS011;12012;51.998;7.614;2022-08-14T00:31:13;8.38;;;6.88;;
23670;SDS011;12012;51.998;7.614;2022-08-14T00:33:39;9.02;;;7.28;;
23670;SDS011;12012;51.998;7.614;2022-08-14T00:36:05;7.88;;;6.68;;
23670;SDS011;12012;51.998;7.614;2022-08-14T00:38:31;7.80;;;7.00;;
23670;SDS011;12012;51.998;7.614;2022-08-14T00:40:57;7.72;;;7.03;;
23670;SDS011;12012;51.998;7.614;2022-08-14T00:43:23;7.50;;;6.70;;
23670;SDS011;12012;51.998;7.614;2022-08-14T00:45:49;7.75;;;7.10;;
23670;SDS011;12012;51.998;7.614;2022-08-14T00:48:15;7.57;;;6.88;;
23670;SDS011;12012;51.998;7.614;2022-08-14T00:50:43;9.50;;;8.23;;
23670;SDS011;12012;51.998;7.614;2022-08-14T00:53:08;7.32;;;6.72;;
23670;SDS011;12012;51.998;7.614;2022-08-14T00:55:35;9.38;;;6.97;;
23670;SDS011;12012;51.998;7.614;2022-08-14T00:58:03;8.40;;;7.50;;
23670;SDS011;12012;51.998;7.614;2022-08-14T01:00:47;8.48;;;7.60;;
23670;SDS011;12012;51.998;7.614;2022-08-14T01:03:14;9.23;;;7.45;;
23670;SDS011;12012;51.998;7.614;2022-08-14T01:05:42;7.82;;;7.00;;
23670;SDS011;12012;51.998;7.614;2022-08-14T01:08:15;8.25;;;7.55;;
23670;SDS011;12012;51.998;7.614;2022-08-14T01:10:46;7.50;;;6.78;;
23670;SDS011;12012;51.998;7.614;2022-08-14T01:13:27;9.13;;;8.23;;
23670;SDS011;12012;51.998;7.614;2022-08-14T01:18:26;9.07;;;7.43;;
23670;SDS011;12012;51.998;7.614;2022-08-14T01:21:11;7.53;;;6.82;;
23670;SDS011;12012;51.998;7.614;2022-08-14T01:23:48;8.30;;;7.47;;
23670;SDS011;12012;51.998;7.614;2022-08-14T01:26:17;9.30;;;7.88;;
23670;SDS011;12012;51.998;7.614;2022-08-14T01:28:45;7.88;;;7.18;;
23670;SDS011;12012;51.998;7.614;2022-08-14T01:31:19;12.77;;;8.18;;
23670;SDS011;12012;51.998;7.614;2022-08-14T01:33:48;10.00;;;8.15;;
23670;SDS011;12012;51.998;7.614;2022-08-14T01:36:16;8.63;;;7.82;;
23670;SDS011;12012;51.998;7.614;2022-08-14T01:38:44;8.95;;;7.65;;
23670;SDS011;12012;51.998;7.614;2022-08-14T01:41:13;8.98;;;7.88;;
23670;SDS011;12012;51.998;7.614;2022-08-14T01:43:50;9.00;;;8.15;;
23670;SDS011;12012;51.998;7.614;2022-08-14T01:46:25;9.63;;;8.65;;
23670;SDS011;12012;51.998;7.614;2022-08-14T01:49:02;8.45;;;7.75;;
23670;SDS011;12012;51.998;7.614;2022-08-14T01:51:30;8.93;;;7.82;;
23670;SDS011;12012;51.998;7.614;2022-08-14T01:54:00;9.63;;;8.73;;
23670;SDS011;12012;51.998;7.614;2022-08-14T01:56:30;9.95;;;8.95;;
23670;SDS011;12012;51.998;7.614;2022-08-14T02:01:40;8.57;;;7.78;;
23670;SDS011;12012;51.998;7.614;2022-08-14T02:04:07;8.65;;;7.95;;
23670;SDS011;12012;51.998;7.614;2022-08-14T02:06:33;9.13;;;8.15;;
23670;SDS011;12012;51.998;7.614;2022-08-14T02:08:59;9.15;;;8.25;;
23670;SDS011;12012;51.998;7.614;2022-08-14T02:11:27;9.15;;;8.25;;
23670;SDS011;12012;51.998;7.614;2022-08-14T02:13:54;10.48;;;9.15;;
23670;SDS011;12012;51.998;7.614;2022-08-14T02:16:26;9.32;;;8.43;;
23670;SDS011;12012;51.998;7.614;2022-08-14T02:18:57;9.27;;;8.38;;
23670;SDS011;12012;51.998;7.614;2022-08-14T02:21:24;9.13;;;8.30;;
23670;SDS011;12012;51.998;7.614;2022-08-14T02:23:52;10.55;;;8.35;;
23670;SDS011;12012;51.998;7.614;2022-08-14T02:26:19;9.90;;;9.00;;
23670;SDS011;12012;51.998;7.614;2022-08-14T02:28:51;8.35;;;7.60;;
23670;SDS011;12012;51.998;7.614;2022-08-14T02:31:19;10.98;;;8.82;;
23670;SDS011;12012;51.998;7.614;2022-08-14T02:33:45;9.00;;;8.10;;
23670;SDS011;12012;51.998;7.614;2022-08-14T02:36:11;10.10;;;8.32;;
23670;SDS011;12012;51.998;7.614;2022-08-14T02:38:37;9.50;;;7.55;;
23670;SDS011;12012;51.998;7.614;2022-08-14T02:41:06;9.00;;;8.10;;
23670;SDS011;12012;51.998;7.614;2022-08-14T02:43:34;10.05;;;8.88;;
23670;SDS011;12012;51.998;7.614;2022-08-14T02:46:00;9.98;;;8.25;;
23670;SDS011;12012;51.998;7.614;2022-08-14T02:48:27;9.18;;;8.38;;
23670;SDS011;12012;51.998;7.614;2022-08-14T02:50:56;9.40;;;8.40;;
23670;SDS011;12012;51.998;7.614;2022-08-14T02:53:23;8.98;;;8.15;;
23670;SDS011;12012;51.998;7.614;2022-08-14T02:55:49;10.88;;;9.07;;
23670;SDS011;12012;51.998;7.614;2022-08-14T02:58:15;9.20;;;8.40;;
23670;SDS011;12012;51.998;7.614;2022-08-14T03:00:41;9.40;;;8.32;;
23670;SDS011;12012;51.998;7.614;2022-08-14T03:03:07;10.38;;;8.70;;
23670;SDS011;12012;51.998;7.614;2022-08-14T03:05:33;8.98;;;8.18;;
23670;SDS011;12012;51.998;7.614;2022-08-14T03:08:06;9.13;;;8.32;;
23670;SDS011;12012;51.998;7.614;2022-08-14T03:10:33;9.95;;;9.02;;
23670;SDS011;12012;51.998;7.614;2022-08-14T03:13:00;8.88;;;8.07;;
23670;SDS011;12012;51.998;7.614;2022-08-14T03:15:28;10.30;;;9.13;;
23670;SDS011;12012;51.998;7.614;2022-08-14T03:18:01;9.20;;;8.40;;
23670;SDS011;12012;51.998;7.614;2022-08-14T03:20:27;10.02;;;9.02;;
23670;SDS011;12012;51.998;7.614;2022-08-14T03:22:54;10.57;;;9.57;;
23670;SDS011;12012;51.998;7.614;2022-08-14T03:25:23;9.10;;;8.18;;
23670;SDS011;12012;51.998;7.614;2022-08-14T03:27:49;9.15;;;8.25;;
23670;SDS011;12012;51.998;7.614;2022-08-14T03:30:15;9.88;;;8.00;;
23670;SDS011;12012;51.998;7.614;2022-08-14T03:32:40;10.18;;;9.27;;
23670;SDS011;12012;51.998;7.614;2022-08-14T03:35:07;9.95;;;9.05;;
23670;SDS011;12012;51.998;7.614;2022-08-14T03:37:35;9.95;;;8.98;;
23670;SDS011;12012;51.998;7.614;2022-08-14T03:40:01;10.15;;;9.20;;
23670;SDS011;12012;51.998;7.614;2022-08-14T03:42:26;13.20;;;9.23;;
23670;SDS011;12012;51.998;7.614;2022-08-14T03:44:52;10.85;;;9.35;;
23670;SDS011;12012;51.998;7.614;2022-08-14T03:47:18;10.70;;;9.63;;
23670;SDS011;12012;51.998;7.614;2022-08-14T03:49:43;9.95;;;8.93;;
23670;SDS011;12012;51.998;7.614;2022-08-14T03:52:10;9.95;;;8.77;;
23670;SDS011;12012;51.998;7.614;2022-08-14T03:54:37;10.38;;;9.32;;
23670;SDS011;12012;51.998;7.614;2022-08-14T03:57:04;10.32;;;9.32;;
23670;SDS011;12012;51.998;7.614;2022-08-14T03:59:30;9.57;;;8.68;;
23670;SDS011;12012;51.998;7.614;2022-08-14T04:01:56;10.15;;;9.25;;
23670;SDS011;12012;51.998;7.614;2022-08-14T04:04:22;9.50;;;8.27;;
23670;SDS011;12012;51.998;7.614;2022-08-14T04:06:48;10.00;;;9.00;;
23670;SDS011;12012;51.998;7.614;2022-08-14T04:09:15;11.20;;;9.20;;
23670;SDS011;12012;51.998;7.614;2022-08-14T04:11:41;10.05;;;8.73;;
23670;SDS011;12012;51.998;7.614;2022-08-14T04:14:07;9.07;;;8.20;;
23670;SDS011;12012;51.998;7.614;2022-08-14T04:16:33;9.95;;;9.00;;
23670;SDS011;12012;51.998;7.614;2022-08-14T04:18:59;9.85;;;8.77;;
23670;SDS011;12012;51.998;7.614;2022-08-14T04:21:28;9.32;;;8.52;;
23670;SDS011;12012;51.998;7.614;2022-08-14T04:23:58;8.98;;;8.07;;
23670;SDS011;12012;51.998;7.614;2022-08-14T04:26:26;9.50;;;8.60;;
23670;SDS011;12012;51.998;7.614;2022-08-14T04:28:54;9.05;;;8.10;;
23670;SDS011;12012;51.998;7.614;2022-08-14T04:31:21;9.07;;;8.20;;
23670;SDS011;12012;51.998;7.614;2022-08-14T04:33:47;8.48;;;7.78;;
23670;SDS011;12012;51.998;7.614;2022-08-14T04:36:16;9.23;;;8.32;;
23670;SDS011;12012;51.998;7.614;2022-08-14T04:38:42;9.95;;;8.48;;
23670;SDS011;12012;51.998;7.614;2022-08-14T04:41:26;11.23;;;8.68;;
23670;SDS011;12012;51.998;7.614;2022-08-14T04:44:10;8.95;;;8.13;;
23670;SDS011;12012;51.998;7.614;2022-08-14T04:46:36;12.50;;;8.90;;
23670;SDS011;12012;51.998;7.614;2022-08-14T04:49:02;10.80;;;9.02;;
23670;SDS011;12012;51.998;7.614;2022-08-14T04:51:28;8.52;;;7.85;;
23670;SDS011;12012;51.998;7.614;2022-08-14T04:53:55;8.60;;;7.70;;
23670;SDS011;12012;51.998;7.614;2022-08-14T04:56:22;8.68;;;7.88;;
23670;SDS011;12012;51.998;7.614;2022-08-14T04:58:49;9.05;;;8.15;;
23670;SDS011;12012;51.998;7.614;2022-08-14T05:01:21;9.55;;;8.75;;
23670;SDS011;12012;51.998;7.614;2022-08-14T05:03:50;9.00;;;8.00;;
23670;SDS011;12012;51.998;7.614;2022-08-14T05:06:19;9.57;;;8.10;;
23670;SDS011;12012;51.998;7.614;2022-08-14T05:08:45;9.52;;;8.38;;
23670;SDS011;12012;51.998;7.614;2022-08-14T05:11:11;10.40;;;9.35;;
23670;SDS011;12012;51.998;7.614;2022-08-14T05:13:37;10.07;;;9.07;;
23670;SDS011;12012;51.998;7.614;2022-08-14T05:16:03;9.60;;;8.80;;
23670;SDS011;12012;51.998;7.614;2022-08-14T05:18:34;11.77;;;8.20;;
23670;SDS011;12012;51.998;7.614;2022-08-14T05:21:02;12.52;;;8.95;;
23670;SDS011;12012;51.998;7.614;2022-08-14T05:23:30;9.55;;;8.38;;
23670;SDS011;12012;51.998;7.614;2022-08-14T05:25:58;10.93;;;8.15;;
23670;SDS011;12012;51.998;7.614;2022-08-14T05:28:31;9.00;;;8.10;;
23670;SDS011;12012;51.998;7.614;2022-08-14T05:30:59;10.02;;;8.60;;
23670;SDS011;12012;51.998;7.614;2022-08-14T05:33:31;8.50;;;7.72;;
23670;SDS011;12012;51.998;7.614;2022-08-14T05:35:59;11.50;;;8.32;;
23670;SDS011;12012;51.998;7.614;2022-08-14T05:38:26;8.50;;;7.70;;
23670;SDS011;12012;51.998;7.614;2022-08-14T05:40:54;8.13;;;7.32;;
23670;SDS011;12012;51.998;7.614;2022-08-14T05:43:22;8.48;;;7.78;;
23670;SDS011;12012;51.998;7.614;2022-08-14T05:45:48;8.32;;;7.63;;
23670;SDS011;12012;51.998;7.614;2022-08-14T05:48:13;8.77;;;8.05;;
23670;SDS011;12012;51.998;7.614;2022-08-14T05:50:43;10.43;;;8.63;;
23670;SDS011;12012;51.998;7.614;2022-08-14T05:53:09;8.40;;;7.57;;
23670;SDS011;12012;51.998;7.614;2022-08-14T05:55:35;10.38;;;8.32;;
23670;SDS011;12012;51.998;7.614;2022-08-14T05:58:04;10.32;;;8.38;;
23670;SDS011;12012;51.998;7.614;2022-08-14T06:00:32;8.57;;;7.87;;
23670;SDS011;12012;51.998;7.614;2022-08-14T06:03:01;9.10;;;8.18;;
23670;SDS011;12012;51.998;7.614;2022-08-14T06:05:28;11.88;;;9.85;;
23670;SDS011;12012;51.998;7.614;2022-08-14T06:07:58;9.00;;;8.10;;
23670;SDS011;12012;51.998;7.614;2022-08-14T06:10:24;8.00;;;7.22;;
23670;SDS011;12012;51.998;7.614;2022-08-14T06:12:51;8.15;;;7.45;;
23670;SDS011;12012;51.998;7.614;2022-08-14T06:15:16;8.88;;;7.82;;
23670;SDS011;12012;51.998;7.614;2022-08-14T06:17:46;9.32;;;8.35;;
23670;SDS011;12012;51.998;7.614;2022-08-14T06:20:16;8.60;;;7.65;;
23670;SDS011;12012;51.998;7.614;2022-08-14T06:22:42;9.68;;;7.95;;
23670;SDS011;12012;51.998;7.614;2022-08-14T06:25:09;8.80;;;7.90;;
23670;SDS011;12012;51.998;7.614;2022-08-14T06:27:39;8.07;;;7.28;;
23670;SDS011;12012;51.998;7.614;2022-08-14T06:30:07;8.15;;;7.45;;
23670;SDS011;12012;51.998;7.614;2022-08-14T06:32:35;8.68;;;7.80;;
23670;SDS011;12012;51.998;7.614;2022-08-14T06:35:04;8.68;;;7.78;;
23670;SDS011;12012;51.998;7.614;2022-08-14T06:37:41;9.00;;;8.20;;
23670;SDS011;12012;51.998;7.614;2022-08-14T06:40:20;10.13;;;8.02;;
23670;SDS011;12012;51.998;7.614;2022-08-14T06:42:47;8.70;;;7.50;;
23670;SDS011;12012;51.998;7.614;2022-08-14T06:45:14;8.10;;;7.30;;
23670;SDS011;12012;51.998;7.614;2022-08-14T06:47:41;9.38;;;7.40;;
23670;SDS011;12012;51.998;7.614;2022-08-14T06:50:10;9.30;;;8.40;;
23670;SDS011;12012;51.998;7.614;2022-08-14T06:52:40;9.30;;;7.90;;
23670;SDS011;12012;51.998;7.614;2022-08-14T06:55:07;8.50;;;7.68;;
23670;SDS011;12012;51.998;7.614;2022-08-14T06:57:34;8.32;;;7.47;;
23670;SDS011;12012;51.998;7.614;2022-08-14T07:00:03;8.35;;;7.53;;
23670;SDS011;12012;51.998;7.614;2022-08-14T07:02:30;8.90;;;7.97;;
23670;SDS011;12012;51.998;7.614;2022-08-14T07:05:15;9.20;;;8.40;;
23670;SDS011;12012;51.998;7.614;2022-08-14T07:07:59;8.23;;;7.53;;
23670;SDS011;12012;51.998;7.614;2022-08-14T07:10:24;9.23;;;8.35;;
23670;SDS011;12012;51.998;7.614;2022-08-14T07:12:50;12.40;;;8.43;;
23670;SDS011;12012;51.998;7.614;2022-08-14T07:15:16;9.07;;;7.50;;
23670;SDS011;12012;51.998;7.614;2022-08-14T07:17:48;8.57;;;7.78;;
23670;SDS011;12012;51.998;7.614;2022-08-14T07:20:14;8.80;;;8.00;;
23670;SDS011;12012;51.998;7.614;2022-08-14T07:22:45;9.05;;;8.15;;
23670;SDS011;12012;51.998;7.614;2022-08-14T07:25:11;8.18;;;7.47;;
23670;SDS011;12012;51.998;7.614;2022-08-14T07:27:40;8.55;;;7.85;;
23670;SDS011;12012;51.998;7.614;2022-08-14T07:30:06;9.05;;;8.13;;
23670;SDS011;12012;51.998;7.614;2022-08-14T07:32:33;7.93;;;7.22;;
23670;SDS011;12012;51.998;7.614;2022-08-14T07:34:58;8.77;;;7.97;;
23670;SDS011;12012;51.998;7.614;2022-08-14T07:37:24;9.02;;;7.70;;
23670;SDS011;12012;51.998;7.614;2022-08-14T07:39:50;9.13;;;8.23;;
23670;SDS011;12012;51.998;7.614;2022-08-14T07:42:15;8.57;;;7.78;;
23670;SDS011;12012;51.998;7.614;2022-08-14T07:44:41;8.52;;;7.78;;
23670;SDS011;12012;51.998;7.614;2022-08-14T07:47:07;8.15;;;7.45;;
23670;SDS011;12012;51.998;7.614;2022-08-14T07:49:33;8.43;;;7.63;;
23670;SDS011;12012;51.998;7.614;2022-08-14T07:52:00;8.70;;;7.90;;
23670;SDS011;12012;51.998;7.614;2022-08-14T07:54:26;9.07;;;8.18;;
23670;SDS011;12012;51.998;7.614;2022-08-14T07:56:51;8.50;;;7.70;;
23670;SDS011;12012;51.998;7.614;2022-08-14T07:59:17;8.10;;;7.40;;
23670;SDS011;12012;51.998;7.614;2022-08-14T08:01:45;7.35;;;6.68;;
23670;SDS011;12012;51.998;7.614;2022-08-14T08:04:11;8.70;;;7.43;;
23670;SDS011;12012;51.998;7.614;2022-08-14T08:06:38;8.15;;;7.45;;
23670;SDS011;12012;51.998;7.614;2022-08-14T08:09:05;7.32;;;6.72;;
23670;SDS011;12012;51.998;7.614;2022-08-14T08:11:33;7.15;;;6.55;;
23670;SDS011;12012;51.998;7.614;2022-08-14T08:14:02;7.22;;;6.63;;
23670;SDS011;12012;51.998;7.614;2022-08-14T08:16:32;6.85;;;6.15;;
23670;SDS011;12012;51.998;7.614;2022-08-14T08:18:58;7.07;;;6.53;;
23670;SDS011;12012;51.998;7.614;2022-08-14T08:21:24;8.30;;;6.90;;
23670;SDS011;12012;51.998;7.614;2022-08-14T08:23:50;7.15;;;6.47;;
23670;SDS011;12012;51.998;7.614;2022-08-14T08:26:16;7.50;;;6.90;;
23670;SDS011;12012;51.998;7.614;2022-08-14T08:28:41;8.13;;;6.97;;
23670;SDS011;12012;51.998;7.614;2022-08-14T08:31:07;7.88;;;7.13;;
23670;SDS011;12012;51.998;7.614;2022-08-14T08:33:33;6.90;;;6.30;;
23670;SDS011;12012;51.998;7.614;2022-08-14T08:36:00;7.22;;;6.60;;
23670;SDS011;12012;51.998;7.614;2022-08-14T08:38:31;7.45;;;6.75;;
23670;SDS011;12012;51.998;7.614;2022-08-14T08:40:58;6.95;;;6.35;;
23670;SDS011;12012;51.998;7.614;2022-08-14T08:43:34;7.30;;;6.40;;
23670;SDS011;12012;51.998;7.614;2022-08-14T08:46:02;7.03;;;6.32;;
23670;SDS011;12012;51.998;7.614;2022-08-14T08:48:42;6.20;;;5.80;;
23670;SDS011;12012;51.998;7.614;2022-08-14T08:51:21;7.63;;;5.97;;
23670;SDS011;12012;51.998;7.614;2022-08-14T08:53:58;7.22;;;6.53;;
23670;SDS011;12012;51.998;7.614;2022-08-14T08:56:50;6.68;;;6.18;;
23670;SDS011;12012;51.998;7.614;2022-08-14T08:59:28;5.95;;;5.50;;
23670;SDS011;12012;51.998;7.614;2022-08-14T09:02:03;6.82;;;6.15;;
23670;SDS011;12012;51.998;7.614;2022-08-14T09:04:35;6.78;;;5.78;;
23670;SDS011;12012;51.998;7.614;2022-08-14T09:07:11;6.60;;;6.10;;
23670;SDS011;12012;51.998;7.614;2022-08-14T09:09:38;6.63;;;6.03;;
23670;SDS011;12012;51.998;7.614;2022-08-14T09:12:15;5.90;;;5.50;;
23670;SDS011;12012;51.998;7.614;2022-08-14T09:14:43;6.43;;;5.68;;
23670;SDS011;12012;51.998;7.614;2022-08-14T09:17:11;7.00;;;6.28;;
23670;SDS011;12012;51.998;7.614;2022-08-14T09:19:37;6.32;;;5.75;;
23670;SDS011;12012;51.998;7.614;2022-08-14T09:22:04;7.10;;;6.50;;
23670;SDS011;12012;51.998;7.614;2022-08-14T09:24:30;6.60;;;5.63;;
23670;SDS011;12012;51.998;7.614;2022-08-14T09:26:57;7.30;;;5.97;;
23670;SDS011;12012;51.998;7.614;2022-08-14T09:29:22;7.47;;;6.75;;
23670;SDS011;12012;51.998;7.614;2022-08-14T09:31:51;6.40;;;5.25;;
23670;SDS011;12012;51.998;7.614;2022-08-14T09:45:11;5.38;;;4.97;;
23670;SDS011;12012;51.998;7.614;2022-08-14T09:47:42;4.57;;;4.18;;
23670;SDS011;12012;51.998;7.614;2022-08-14T09:52:48;6.00;;;4.68;;
23670;SDS011;12012;51.998;7.614;2022-08-14T09:55:21;16.85;;;15.45;;
23670;SDS011;12012;51.998;7.614;2022-08-14T09:57:48;8.20;;;7.60;;
23670;SDS011;12012;51.998;7.614;2022-08-14T10:00:16;6.55;;;5.15;;
23670;SDS011;12012;51.998;7.614;2022-08-14T10:02:55;8.32;;;5.25;;
23670;SDS011;12012;51.998;7.614;2022-08-14T10:05:36;6.78;;;5.75;;
23670;SDS011;12012;51.998;7.614;2022-08-14T10:08:03;8.50;;;7.80;;
23670;SDS011;12012;51.998;7.614;2022-08-14T10:10:33;7.90;;;6.25;;
23670;SDS011;12012;51.998;7.614;2022-08-14T10:13:07;5.82;;;5.10;;
23670;SDS011;12012;51.998;7.614;2022-08-14T10:15:45;5.13;;;4.63;;
23670;SDS011;12012;51.998;7.614;2022-08-14T10:18:13;7.15;;;6.45;;
23670;SDS011;12012;51.998;7.614;2022-08-14T10:20:41;5.35;;;4.95;;
23670;SDS011;12012;51.998;7.614;2022-08-14T10:23:16;4.32;;;4.03;;
23670;SDS011;12012;51.998;7.614;2022-08-14T10:25:47;4.40;;;4.10;;
23670;SDS011;12012;51.998;7.614;2022-08-14T10:28:21;4.47;;;4.07;;
23670;SDS011;12012;51.998;7.614;2022-08-14T10:30:48;7.10;;;4.40;;
23670;SDS011;12012;51.998;7.614;2022-08-14T10:35:51;3.97;;;3.60;;
23670;SDS011;12012;51.998;7.614;2022-08-14T10:38:30;3.72;;;3.33;;
23670;SDS011;12012;51.998;7.614;2022-08-14T10:41:12;3.85;;;3.55;;
23670;SDS011;12012;51.998;7.614;2022-08-14T10:43:40;4.70;;;3.55;;
23670;SDS011;12012;51.998;7.614;2022-08-14T10:46:25;3.65;;;3.38;;
23670;SDS011;12012;51.998;7.614;2022-08-14T10:48:56;4.10;;;3.15;;
23670;SDS011;12012;51.998;7.614;2022-08-14T10:51:27;3.95;;;3.58;;
23670;SDS011;12012;51.998;7.614;2022-08-14T10:53:54;3.78;;;3.50;;
23670;SDS011;12012;51.998;7.614;2022-08-14T10:56:28;3.72;;;3.38;;
23670;SDS011;12012;51.998;7.614;2022-08-14T10:59:00;3.88;;;3.55;;
23670;SDS011;12012;51.998;7.614;2022-08-14T11:01:30;3.80;;;3.60;;
23670;SDS011;12012;51.998;7.614;2022-08-14T11:03:57;3.50;;;3.20;;
23670;SDS011;12012;51.998;7.614;2022-08-14T11:06:23;4.93;;;3.58;;
23670;SDS011;12012;51.998;7.614;2022-08-14T11:08:48;3.58;;;3.30;;
23670;SDS011;12012;51.998;7.614;2022-08-14T11:11:16;3.40;;;3.20;;
23670;SDS011;12012;51.998;7.614;2022-08-14T11:13:42;4.90;;;3.28;;
23670;SDS011;12012;51.998;7.614;2022-08-14T11:16:10;3.47;;;3.00;;
23670;SDS011;12012;51.998;7.614;2022-08-14T11:18:38;4.70;;;3.70;;
23670;SDS011;12012;51.998;7.614;2022-08-14T11:21:07;4.18;;;3.53;;
23670;SDS011;12012;51.998;7.614;2022-08-14T11:23:34;3.42;;;3.17;;
23670;SDS011;12012;51.998;7.614;2022-08-14T11:26:02;3.92;;;3.50;;
23670;SDS011;12012;51.998;7.614;2022-08-14T11:28:34;3.17;;;2.97;;
23670;SDS011;12012;51.998;7.614;2022-08-14T11:31:07;4.47;;;3.70;;
23670;SDS011;12012;51.998;7.614;2022-08-14T11:33:34;4.03;;;3.38;;
23670;SDS011;12012;51.998;7.614;2022-08-14T11:36:02;3.28;;;2.97;;
23670;SDS011;12012;51.998;7.614;2022-08-14T11:38:37;3.38;;;3.08;;
23670;SDS011;12012;51.998;7.614;2022-08-14T11:41:04;3.45;;;3.25;;
23670;SDS011;12012;51.998;7.614;2022-08-14T11:43:31;3.40;;;3.08;;
23670;SDS011;12012;51.998;7.614;2022-08-14T11:46:02;3.85;;;3.20;;
23670;SDS011;12012;51.998;7.614;2022-08-14T11:48:27;3.60;;;3.30;;
23670;SDS011;12012;51.998;7.614;2022-08-14T11:50:53;3.08;;;2.85;;
23670;SDS011;12012;51.998;7.614;2022-08-14T11:53:26;4.00;;;3.60;;
23670;SDS011;12012;51.998;7.614;2022-08-14T11:55:55;3.53;;;3.22;;
23670;SDS011;12012;51.998;7.614;2022-08-14T11:58:27;4.07;;;3.55;;
23670;SDS011;12012;51.998;7.614;2022-08-14T12:00:55;3.85;;;3.55;;
23670;SDS011;12012;51.998;7.614;2022-08-14T12:03:40;3.30;;;3.10;;
23670;SDS011;12012;51.998;7.614;2022-08-14T12:06:08;4.40;;;4.00;;
23670;SDS011;12012;51.998;7.614;2022-08-14T12:08:36;3.83;;;3.40;;
23670;SDS011;12012;51.998;7.614;2022-08-14T12:11:03;3.58;;;3.28;;
23670;SDS011;12012;51.998;7.614;2022-08-14T12:13:30;3.85;;;3.55;;
23670;SDS011;12012;51.998;7.614;2022-08-14T12:16:03;3.35;;;3.05;;
23670;SDS011;12012;51.998;7.614;2022-08-14T12:18:32;4.07;;;3.75;;
23670;SDS011;12012;51.998;7.614;2022-08-14T12:21:13;6.03;;;3.58;;
23670;SDS011;12012;51.998;7.614;2022-08-14T12:23:41;3.58;;;3.30;;
23670;SDS011;12012;51.998;7.614;2022-08-14T12:26:08;3.80;;;3.50;;
23670;SDS011;12012;51.998;7.614;2022-08-14T12:28:37;3.72;;;3.40;;
23670;SDS011;12012;51.998;7.614;2022-08-14T12:31:19;3.58;;;3.38;;
23670;SDS011;12012;51.998;7.614;2022-08-14T12:33:55;3.58;;;3.28;;
23670;SDS011;12012;51.998;7.614;2022-08-14T12:36:21;3.10;;;2.90;;
23670;SDS011;12012;51.998;7.614;2022-08-14T12:38:47;3.30;;;3.10;;
23670;SDS011;12012;51.998;7.614;2022-08-14T12:41:17;3.30;;;3.10;;
23670;SDS011;12012;51.998;7.614;2022-08-14T12:48:53;3.40;;;3.20;;
23670;SDS011;12012;51.998;7.614;2022-08-14T12:51:21;3.25;;;3.03;;
23670;SDS011;12012;51.998;7.614;2022-08-14T12:53:50;3.90;;;3.15;;
23670;SDS011;12012;51.998;7.614;2022-08-14T12:56:17;3.58;;;3.28;;
23670;SDS011;12012;51.998;7.614;2022-08-14T12:58:51;3.60;;;3.33;;
23670;SDS011;12012;51.998;7.614;2022-08-14T13:01:19;2.80;;;2.70;;
23670;SDS011;12012;51.998;7.614;2022-08-14T13:03:47;3.28;;;3.08;;
23670;SDS011;12012;51.998;7.614;2022-08-14T13:06:13;3.80;;;3.53;;
23670;SDS011;12012;51.998;7.614;2022-08-14T13:08:39;3.47;;;3.00;;
23670;SDS011;12012;51.998;7.614;2022-08-14T13:11:10;3.45;;;3.17;;
23670;SDS011;12012;51.998;7.614;2022-08-14T13:13:37;3.45;;;3.15;;
23670;SDS011;12012;51.998;7.614;2022-08-14T13:16:07;3.53;;;3.13;;
23670;SDS011;12012;51.998;7.614;2022-08-14T13:18:33;3.40;;;3.20;;
23670;SDS011;12012;51.998;7.614;2022-08-14T13:21:01;3.10;;;2.90;;
23670;SDS011;12012;51.998;7.614;2022-08-14T13:23:33;3.83;;;3.53;;
23670;SDS011;12012;51.998;7.614;2022-08-14T13:28:25;3.50;;;3.30;;
23670;SDS011;12012;51.998;7.614;2022-08-14T13:30:51;2.97;;;2.78;;
23670;SDS011;12012;51.998;7.614;2022-08-14T13:33:18;3.70;;;3.33;;
23670;SDS011;12012;51.998;7.614;2022-08-14T13:35:47;3.20;;;2.90;;
23670;SDS011;12012;51.998;7.614;2022-08-14T13:38:19;3.53;;;3.30;;
23670;SDS011;12012;51.998;7.614;2022-08-14T13:40:49;3.42;;;2.78;;
23670;SDS011;12012;51.998;7.614;2022-08-14T13:43:20;5.43;;;3.20;;
23670;SDS011;12012;51.998;7.614;2022-08-14T13:45:48;3.78;;;3.47;;
23670;SDS011;12012;51.998;7.614;2022-08-14T13:48:16;3.50;;;3.30;;
23670;SDS011;12012;51.998;7.614;2022-08-14T13:50:42;3.22;;;3.03;;
23670;SDS011;12012;51.998;7.614;2022-08-14T13:53:09;3.35;;;3.15;;
23670;SDS011;12012;51.998;7.614;2022-08-14T13:55:38;3.67;;;3.37;;
23670;SDS011;12012;51.998;7.614;2022-08-14T13:58:06;3.20;;;3.00;;
23670;SDS011;12012;51.998;7.614;2022-08-14T14:00:33;4.45;;;3.38;;
23670;SDS011;12012;51.998;7.614;2022-08-14T14:03:00;4.10;;;3.70;;
23670;SDS011;12012;51.998;7.614;2022-08-14T14:05:30;3.65;;;3.35;;
23670;SDS011;12012;51.998;7.614;2022-08-14T14:08:00;3.55;;;3.30;;
23670;SDS011;12012;51.998;7.614;2022-08-14T14:10:29;3.93;;;3.57;;
23670;SDS011;12012;51.998;7.614;2022-08-14T14:12:59;3.53;;;3.22;;
23670;SDS011;12012;51.998;7.614;2022-08-14T14:15:26;3.33;;;3.13;;
23670;SDS011;12012;51.998;7.614;2022-08-14T14:17:51;3.45;;;3.25;;
23670;SDS011;12012;51.998;7.614;2022-08-14T14:20:18;3.90;;;3.60;;
23670;SDS011;12012;51.998;7.614;2022-08-14T14:22:47;3.33;;;3.13;;
23670;SDS011;12012;51.998;7.614;2022-08-14T14:25:14;3.30;;;3.10;;
23670;SDS011;12012;51.998;7.614;2022-08-14T14:27:41;3.50;;;3.30;;
23670;SDS011;12012;51.998;7.614;2022-08-14T14:30:13;3.78;;;3.47;;
23670;SDS011;12012;51.998;7.614;2022-08-14T14:32:41;3.70;;;3.40;;
23670;SDS011;12012;51.998;7.614;2022-08-14T14:35:09;5.25;;;3.95;;
23670;SDS011;12012;51.998;7.614;2022-08-14T14:37:39;3.50;;;3.30;;
23670;SDS011;12012;51.998;7.614;2022-08-14T14:40:06;3.78;;;3.47;;
23670;SDS011;12012;51.998;7.614;2022-08-14T14:42:32;4.13;;;3.70;;
23670;SDS011;12012;51.998;7.614;2022-08-14T14:45:20;4.15;;;3.85;;
23670;SDS011;12012;51.998;7.614;2022-08-14T14:47:50;3.95;;;3.65;;
23670;SDS011;12012;51.998;7.614;2022-08-14T14:50:17;4.10;;;3.80;;
23670;SDS011;12012;51.998;7.614;2022-08-14T14:52:44;3.88;;;3.67;;
23670;SDS011;12012;51.998;7.614;2022-08-14T14:55:11;3.95;;;3.55;;
23670;SDS011;12012;51.998;7.614;2022-08-14T14:57:37;4.57;;;3.92;;
23670;SDS011;12012;51.998;7.614;2022-08-14T15:00:14;3.50;;;3.30;;
23670;SDS011;12012;51.998;7.614;2022-08-14T15:02:41;3.97;;;3.67;;
23670;SDS011;12012;51.998;7.614;2022-08-14T15:05:09;4.18;;;3.50;;
23670;SDS011;12012;51.998;7.614;2022-08-14T15:07:37;3.95;;;3.65;;
23670;SDS011;12012;51.998;7.614;2022-08-14T15:10:04;4.00;;;3.70;;
23670;SDS011;12012;51.998;7.614;2022-08-14T15:12:31;3.30;;;3.10;;
23670;SDS011;12012;51.998;7.614;2022-08-14T15:14:57;4.20;;;3.80;;
23670;SDS011;12012;51.998;7.614;2022-08-14T15:17:23;3.55;;;3.35;;
23670;SDS011;12012;51.998;7.614;2022-08-14T15:19:49;3.40;;;3.20;;
23670;SDS011;12012;51.998;7.614;2022-08-14T15:22:15;4.28;;;3.85;;
23670;SDS011;12012;51.998;7.614;2022-08-14T15:24:41;3.70;;;3.50;;